RYR2TL EPMO-EGSS
Flight info
| Callsign | RYR2TL |
|---|---|
| Flight time | 2h 11m |
| Altitude | 38000 |
| Route | OLILA DCT MEBIV DCT RILAB L621 SOMOR DCT TADAK L29 ALUKA DCT GARLU DCT NOGRO M40 RINIS |
| Aircraft | B38M/M-SADE3FGILRWY/SB1 |
Departure
| Time | 2026-04-26 14:31 |
|---|---|
| Airport | Warsaw Modlin Airport (EPMO) |
Arrival
| Time | 2026-04-26 16:42 |
|---|---|
| Airport | London Stansted Airport (EGSS) |
| Time | Latitude | Longitude | Altitude | Speed | Heading |
|---|---|---|---|---|---|
| 2026-04-26 14:05 | 52.44722 | 20.65018 | 340 ft | 0 kts | 206° |
| 2026-04-26 14:20 | 52.44724 | 20.65020 | 340 ft | 3 kts | 205° |
| 2026-04-26 14:20 | 52.44748 | 20.65032 | 339 ft | 4 kts | 176° |
| 2026-04-26 14:20 | 52.44766 | 20.65019 | 336 ft | 4 kts | 109° |
| 2026-04-26 14:20 | 52.44767 | 20.65000 | 338 ft | 1 kts | 81° |
| 2026-04-26 14:21 | 52.44767 | 20.64997 | 337 ft | 0 kts | 81° |
| 2026-04-26 14:26 | 52.44767 | 20.64998 | 340 ft | 0 kts | 81° |
| 2026-04-26 14:26 | 52.44769 | 20.65017 | 336 ft | 3 kts | 81° |
| 2026-04-26 14:26 | 52.44773 | 20.65067 | 340 ft | 6 kts | 81° |
| 2026-04-26 14:27 | 52.44781 | 20.65147 | 337 ft | 8 kts | 81° |
| 2026-04-26 14:27 | 52.44791 | 20.65255 | 340 ft | 11 kts | 82° |
| 2026-04-26 14:27 | 52.44804 | 20.65390 | 340 ft | 13 kts | 81° |
| 2026-04-26 14:27 | 52.44816 | 20.65526 | 340 ft | 12 kts | 81° |
| 2026-04-26 14:28 | 52.44828 | 20.65673 | 340 ft | 14 kts | 83° |
| 2026-04-26 14:28 | 52.44844 | 20.65844 | 339 ft | 16 kts | 81° |
| 2026-04-26 14:28 | 52.44862 | 20.66037 | 340 ft | 18 kts | 82° |
| 2026-04-26 14:28 | 52.44883 | 20.66254 | 337 ft | 20 kts | 81° |
| 2026-04-26 14:29 | 52.44905 | 20.66495 | 337 ft | 22 kts | 81° |
| 2026-04-26 14:29 | 52.44928 | 20.66733 | 341 ft | 18 kts | 82° |
| 2026-04-26 14:29 | 52.44947 | 20.66943 | 341 ft | 20 kts | 81° |
| 2026-04-26 14:29 | 52.44995 | 20.67079 | 341 ft | 15 kts | 8° |
| 2026-04-26 14:30 | 52.45100 | 20.67056 | 336 ft | 16 kts | 351° |
| 2026-04-26 14:30 | 52.45210 | 20.67021 | 340 ft | 14 kts | 341° |
| 2026-04-26 14:30 | 52.45285 | 20.66963 | 349 ft | 8 kts | 295° |
| 2026-04-26 14:30 | 52.45280 | 20.66867 | 338 ft | 12 kts | 261° |
| 2026-04-26 14:31 | 52.45242 | 20.66458 | 337 ft | 75 kts | 261° |
| 2026-04-26 14:31 | 52.45121 | 20.65189 | 349 ft | 146 kts | 261° |
| 2026-04-26 14:31 | 52.44917 | 20.63422 | 860 ft | 169 kts | 259° |
| 2026-04-26 14:31 | 52.44600 | 20.61528 | 1872 ft | 173 kts | 268° |
| 2026-04-26 14:32 | 52.44434 | 20.59551 | 2698 ft | 183 kts | 272° |
| 2026-04-26 14:32 | 52.44393 | 20.57334 | 3255 ft | 203 kts | 289° |
| 2026-04-26 14:32 | 52.45129 | 20.55291 | 3934 ft | 217 kts | 318° |
| 2026-04-26 14:32 | 52.46406 | 20.53906 | 4759 ft | 231 kts | 332° |
| 2026-04-26 14:33 | 52.47833 | 20.52632 | 5860 ft | 234 kts | 331° |
| 2026-04-26 14:33 | 52.49276 | 20.51349 | 6967 ft | 237 kts | 331° |
| 2026-04-26 14:33 | 52.50738 | 20.50060 | 8055 ft | 238 kts | 332° |
| 2026-04-26 14:33 | 52.52204 | 20.48775 | 9142 ft | 240 kts | 333° |
| 2026-04-26 14:34 | 52.53671 | 20.47494 | 10168 ft | 242 kts | 333° |
| 2026-04-26 14:34 | 52.55190 | 20.46164 | 10873 ft | 255 kts | 333° |
| 2026-04-26 14:34 | 52.56815 | 20.44736 | 11381 ft | 272 kts | 333° |
| 2026-04-26 14:34 | 52.58523 | 20.43236 | 12100 ft | 280 kts | 333° |
| 2026-04-26 14:35 | 52.60237 | 20.41739 | 13103 ft | 279 kts | 333° |
| 2026-04-26 14:35 | 52.61961 | 20.40236 | 13979 ft | 281 kts | 333° |
| 2026-04-26 14:35 | 52.63695 | 20.38722 | 14778 ft | 282 kts | 333° |
| 2026-04-26 14:35 | 52.65415 | 20.37222 | 15530 ft | 284 kts | 333° |
| 2026-04-26 14:36 | 52.67167 | 20.35694 | 16294 ft | 285 kts | 333° |
| 2026-04-26 14:36 | 52.68851 | 20.33953 | 17013 ft | 289 kts | 321° |
| 2026-04-26 14:36 | 52.70062 | 20.31263 | 17809 ft | 299 kts | 302° |
| 2026-04-26 14:36 | 52.70511 | 20.29076 | 18357 ft | 309 kts | 291° |
| 2026-04-26 14:37 | 52.70790 | 20.25509 | 19060 ft | 314 kts | 288° |
| 2026-04-26 14:37 | 52.71107 | 20.20714 | 19789 ft | 319 kts | 287° |
| 2026-04-26 14:37 | 52.71261 | 20.18242 | 20186 ft | 321 kts | 287° |
| 2026-04-26 14:37 | 52.71479 | 20.14568 | 20748 ft | 323 kts | 286° |
| 2026-04-26 14:38 | 52.71693 | 20.10856 | 21312 ft | 326 kts | 286° |
| 2026-04-26 14:38 | 52.71901 | 20.07171 | 21854 ft | 328 kts | 286° |
| 2026-04-26 14:38 | 52.72111 | 20.03408 | 22413 ft | 331 kts | 286° |
| 2026-04-26 14:38 | 52.72321 | 19.99607 | 22944 ft | 333 kts | 286° |
| 2026-04-26 14:39 | 52.72532 | 19.95766 | 23480 ft | 336 kts | 286° |
| 2026-04-26 14:39 | 52.72743 | 19.91902 | 23972 ft | 339 kts | 285° |
| 2026-04-26 14:39 | 52.72953 | 19.88016 | 24427 ft | 341 kts | 285° |
| 2026-04-26 14:39 | 52.73161 | 19.84147 | 24891 ft | 343 kts | 285° |
| 2026-04-26 14:40 | 52.73373 | 19.80199 | 25343 ft | 345 kts | 285° |
| 2026-04-26 14:40 | 52.73584 | 19.76233 | 25793 ft | 347 kts | 285° |
| 2026-04-26 14:40 | 52.73795 | 19.72240 | 26240 ft | 350 kts | 285° |
| 2026-04-26 14:40 | 52.74006 | 19.68230 | 26675 ft | 352 kts | 284° |
| 2026-04-26 14:41 | 52.74215 | 19.64228 | 27108 ft | 354 kts | 284° |
| 2026-04-26 14:41 | 52.74425 | 19.60177 | 27538 ft | 356 kts | 284° |
| 2026-04-26 14:41 | 52.74636 | 19.56077 | 27954 ft | 358 kts | 284° |
| 2026-04-26 14:41 | 52.74847 | 19.51961 | 28361 ft | 360 kts | 284° |
| 2026-04-26 14:42 | 52.75058 | 19.47802 | 28763 ft | 363 kts | 284° |
| 2026-04-26 14:42 | 52.75268 | 19.43641 | 29104 ft | 365 kts | 283° |
| 2026-04-26 14:42 | 52.75477 | 19.39474 | 29456 ft | 368 kts | 283° |
| 2026-04-26 14:42 | 52.75687 | 19.35237 | 29837 ft | 370 kts | 283° |
| 2026-04-26 14:43 | 52.75897 | 19.30993 | 30213 ft | 372 kts | 283° |
| 2026-04-26 14:43 | 52.76107 | 19.26714 | 30532 ft | 374 kts | 282° |
| 2026-04-26 14:43 | 52.76313 | 19.22476 | 30842 ft | 376 kts | 282° |
| 2026-04-26 14:43 | 52.76521 | 19.18153 | 31149 ft | 378 kts | 282° |
| 2026-04-26 14:44 | 52.76730 | 19.13809 | 31449 ft | 380 kts | 282° |
| 2026-04-26 14:44 | 52.76937 | 19.09453 | 31746 ft | 382 kts | 282° |
| 2026-04-26 14:44 | 52.77144 | 19.05057 | 32042 ft | 383 kts | 282° |
| 2026-04-26 14:44 | 52.77350 | 19.00661 | 32371 ft | 384 kts | 281° |
| 2026-04-26 14:45 | 52.77551 | 18.96317 | 32774 ft | 383 kts | 281° |
| 2026-04-26 14:45 | 52.77688 | 18.93349 | 33009 ft | 382 kts | 281° |
| 2026-04-26 14:45 | 52.77955 | 18.87525 | 33510 ft | 382 kts | 281° |
| 2026-04-26 14:45 | 52.78153 | 18.83156 | 33928 ft | 381 kts | 281° |
| 2026-04-26 14:46 | 52.78348 | 18.78804 | 34315 ft | 379 kts | 280° |
| 2026-04-26 14:46 | 52.78542 | 18.74454 | 34640 ft | 379 kts | 280° |
| 2026-04-26 14:46 | 52.78733 | 18.70154 | 34899 ft | 380 kts | 280° |
| 2026-04-26 14:46 | 52.78924 | 18.65794 | 35169 ft | 380 kts | 280° |
| 2026-04-26 14:47 | 52.79113 | 18.61427 | 35438 ft | 381 kts | 280° |
| 2026-04-26 14:47 | 52.79302 | 18.57052 | 35698 ft | 381 kts | 280° |
| 2026-04-26 14:47 | 52.79489 | 18.52665 | 35957 ft | 382 kts | 280° |
| 2026-04-26 14:47 | 52.79675 | 18.48287 | 36210 ft | 382 kts | 280° |
| 2026-04-26 14:48 | 52.79857 | 18.43943 | 36429 ft | 383 kts | 279° |
| 2026-04-26 14:48 | 52.80039 | 18.39557 | 36643 ft | 383 kts | 279° |
| 2026-04-26 14:48 | 52.80221 | 18.35148 | 36849 ft | 384 kts | 279° |
| 2026-04-26 14:48 | 52.80402 | 18.30730 | 37080 ft | 385 kts | 279° |
| 2026-04-26 14:49 | 52.80581 | 18.26306 | 37305 ft | 385 kts | 279° |
| 2026-04-26 14:49 | 52.80757 | 18.21929 | 37539 ft | 386 kts | 279° |
| 2026-04-26 14:49 | 52.80932 | 18.17506 | 37751 ft | 386 kts | 279° |
| 2026-04-26 14:49 | 52.81107 | 18.13067 | 37968 ft | 387 kts | 279° |
| 2026-04-26 14:50 | 52.81281 | 18.08622 | 38168 ft | 387 kts | 278° |
| 2026-04-26 14:50 | 52.81622 | 17.99725 | 38238 ft | 387 kts | 278° |
| 2026-04-26 14:51 | 52.81955 | 17.90893 | 38208 ft | 386 kts | 278° |
| 2026-04-26 14:51 | 52.82284 | 17.81982 | 38250 ft | 389 kts | 278° |
| 2026-04-26 14:52 | 52.82606 | 17.73095 | 38251 ft | 389 kts | 278° |
| 2026-04-26 14:52 | 52.82922 | 17.64149 | 38251 ft | 389 kts | 278° |
| 2026-04-26 14:53 | 52.83230 | 17.55260 | 38252 ft | 389 kts | 278° |
| 2026-04-26 14:53 | 52.83534 | 17.46312 | 38262 ft | 389 kts | 278° |
| 2026-04-26 14:54 | 52.83828 | 17.37429 | 38248 ft | 389 kts | 277° |
| 2026-04-26 14:54 | 52.84119 | 17.28457 | 38262 ft | 390 kts | 277° |
| 2026-04-26 14:55 | 52.84403 | 17.19468 | 38264 ft | 390 kts | 277° |
| 2026-04-26 14:55 | 52.84679 | 17.10543 | 38265 ft | 390 kts | 277° |
| 2026-04-26 14:56 | 52.84950 | 17.01554 | 38261 ft | 390 kts | 277° |
| 2026-04-26 14:56 | 52.85212 | 16.92633 | 38268 ft | 390 kts | 277° |
| 2026-04-26 14:57 | 52.85468 | 16.83687 | 38255 ft | 390 kts | 276° |
| 2026-04-26 14:57 | 52.85719 | 16.74680 | 38273 ft | 391 kts | 276° |
| 2026-04-26 14:58 | 52.85963 | 16.65673 | 38274 ft | 391 kts | 276° |
| 2026-04-26 14:58 | 52.86198 | 16.56727 | 38273 ft | 391 kts | 276° |
| 2026-04-26 14:59 | 52.86429 | 16.47717 | 38279 ft | 391 kts | 276° |
| 2026-04-26 14:59 | 52.86651 | 16.38768 | 38275 ft | 391 kts | 276° |
| 2026-04-26 15:00 | 52.86868 | 16.29756 | 38246 ft | 392 kts | 275° |
| 2026-04-26 15:00 | 52.87079 | 16.20731 | 38286 ft | 393 kts | 275° |
| 2026-04-26 15:01 | 52.87283 | 16.11666 | 38294 ft | 392 kts | 275° |
| 2026-04-26 15:01 | 52.87478 | 16.02686 | 38286 ft | 393 kts | 275° |
| 2026-04-26 15:02 | 52.87669 | 15.93639 | 38290 ft | 393 kts | 275° |
| 2026-04-26 15:02 | 52.87852 | 15.84583 | 38280 ft | 393 kts | 275° |
| 2026-04-26 15:03 | 52.88028 | 15.75569 | 38288 ft | 394 kts | 275° |
| 2026-04-26 15:03 | 52.88198 | 15.66479 | 38290 ft | 394 kts | 275° |
| 2026-04-26 15:04 | 52.88361 | 15.57406 | 38287 ft | 394 kts | 275° |
| 2026-04-26 15:04 | 52.88518 | 15.48322 | 38290 ft | 394 kts | 275° |
| 2026-04-26 15:05 | 52.88667 | 15.39286 | 38293 ft | 394 kts | 274° |
| 2026-04-26 15:05 | 52.88809 | 15.30190 | 38276 ft | 395 kts | 274° |
| 2026-04-26 15:06 | 52.88946 | 15.21069 | 38298 ft | 396 kts | 274° |
| 2026-04-26 15:06 | 52.89074 | 15.11987 | 38298 ft | 396 kts | 274° |
| 2026-04-26 15:07 | 52.89255 | 14.98283 | 38292 ft | 396 kts | 274° |
| 2026-04-26 15:07 | 52.89367 | 14.89218 | 38291 ft | 396 kts | 274° |
| 2026-04-26 15:08 | 52.89474 | 14.80080 | 38301 ft | 396 kts | 274° |
| 2026-04-26 15:08 | 52.89575 | 14.70949 | 38299 ft | 396 kts | 274° |
| 2026-04-26 15:09 | 52.89670 | 14.61818 | 38293 ft | 396 kts | 274° |
| 2026-04-26 15:09 | 52.89758 | 14.52688 | 38294 ft | 396 kts | 274° |
| 2026-04-26 15:10 | 52.89826 | 14.45083 | 38293 ft | 396 kts | 273° |
| 2026-04-26 15:10 | 52.89913 | 14.34459 | 38296 ft | 396 kts | 273° |
| 2026-04-26 15:11 | 52.89846 | 14.25369 | 38288 ft | 398 kts | 271° |
| 2026-04-26 15:11 | 52.89750 | 14.16169 | 38292 ft | 399 kts | 271° |
| 2026-04-26 15:12 | 52.89656 | 14.06968 | 38286 ft | 399 kts | 271° |
| 2026-04-26 15:12 | 52.89557 | 13.97818 | 38295 ft | 399 kts | 271° |
| 2026-04-26 15:13 | 52.89451 | 13.88602 | 38293 ft | 399 kts | 271° |
| 2026-04-26 15:13 | 52.89337 | 13.79390 | 38292 ft | 399 kts | 271° |
| 2026-04-26 15:14 | 52.89217 | 13.70225 | 38294 ft | 401 kts | 271° |
| 2026-04-26 15:14 | 52.89088 | 13.60951 | 38294 ft | 401 kts | 271° |
| 2026-04-26 15:15 | 52.88953 | 13.51745 | 38292 ft | 401 kts | 271° |
| 2026-04-26 15:15 | 52.88811 | 13.42545 | 38293 ft | 401 kts | 270° |
| 2026-04-26 15:16 | 52.88661 | 13.33288 | 38292 ft | 401 kts | 270° |
| 2026-04-26 15:16 | 52.88504 | 13.24087 | 38278 ft | 401 kts | 270° |
| 2026-04-26 15:17 | 52.88367 | 13.16310 | 38297 ft | 404 kts | 270° |
| 2026-04-26 15:17 | 52.88167 | 13.05496 | 38295 ft | 404 kts | 270° |
| 2026-04-26 15:18 | 52.87988 | 12.96253 | 38296 ft | 404 kts | 270° |
| 2026-04-26 15:18 | 52.87801 | 12.86923 | 38297 ft | 404 kts | 270° |
| 2026-04-26 15:19 | 52.87607 | 12.77670 | 38292 ft | 404 kts | 270° |
| 2026-04-26 15:19 | 52.87405 | 12.68359 | 38285 ft | 404 kts | 270° |
| 2026-04-26 15:20 | 52.87196 | 12.59023 | 38301 ft | 405 kts | 270° |
| 2026-04-26 15:20 | 52.86980 | 12.49748 | 38300 ft | 405 kts | 270° |
| 2026-04-26 15:21 | 52.86756 | 12.40408 | 38302 ft | 405 kts | 270° |
| 2026-04-26 15:21 | 52.86525 | 12.31132 | 38303 ft | 405 kts | 270° |
| 2026-04-26 15:22 | 52.86286 | 12.21797 | 38307 ft | 405 kts | 270° |
| 2026-04-26 15:22 | 52.86040 | 12.12452 | 38308 ft | 406 kts | 269° |
| 2026-04-26 15:23 | 52.85787 | 12.03148 | 38304 ft | 407 kts | 269° |
| 2026-04-26 15:23 | 52.85525 | 11.93785 | 38300 ft | 407 kts | 269° |
| 2026-04-26 15:24 | 52.85302 | 11.85995 | 38300 ft | 407 kts | 269° |
| 2026-04-26 15:24 | 52.85028 | 11.76686 | 38301 ft | 407 kts | 269° |
| 2026-04-26 15:25 | 52.84746 | 11.67341 | 38294 ft | 407 kts | 269° |
| 2026-04-26 15:25 | 52.84455 | 11.57960 | 38300 ft | 408 kts | 269° |
| 2026-04-26 15:26 | 52.84157 | 11.48567 | 38298 ft | 408 kts | 269° |
| 2026-04-26 15:26 | 52.83855 | 11.39247 | 38298 ft | 408 kts | 269° |
| 2026-04-26 15:27 | 52.83544 | 11.29829 | 38294 ft | 408 kts | 269° |
| 2026-04-26 15:27 | 52.83228 | 11.20496 | 38295 ft | 408 kts | 269° |
| 2026-04-26 15:28 | 52.82837 | 11.11167 | 38291 ft | 409 kts | 264° |
| 2026-04-26 15:28 | 52.82090 | 11.01782 | 38287 ft | 411 kts | 265° |
| 2026-04-26 15:29 | 52.81381 | 10.92397 | 38289 ft | 411 kts | 265° |
| 2026-04-26 15:30 | 52.79960 | 10.73673 | 38291 ft | 411 kts | 265° |
| 2026-04-26 15:30 | 52.79238 | 10.64301 | 38289 ft | 411 kts | 265° |
| 2026-04-26 15:31 | 52.78140 | 10.50242 | 38274 ft | 412 kts | 264° |
| 2026-04-26 15:32 | 52.77147 | 10.37709 | 38285 ft | 412 kts | 264° |
| 2026-04-26 15:32 | 52.76268 | 10.26766 | 38290 ft | 413 kts | 264° |
| 2026-04-26 15:33 | 52.75510 | 10.17415 | 38291 ft | 412 kts | 264° |
| 2026-04-26 15:33 | 52.74741 | 10.08033 | 38283 ft | 413 kts | 264° |
| 2026-04-26 15:34 | 52.73962 | 9.98627 | 38301 ft | 414 kts | 264° |
| 2026-04-26 15:34 | 52.73173 | 9.89188 | 38293 ft | 413 kts | 264° |
| 2026-04-26 15:35 | 52.72384 | 9.79847 | 38294 ft | 414 kts | 264° |
| 2026-04-26 15:35 | 52.71582 | 9.70432 | 38295 ft | 414 kts | 264° |
| 2026-04-26 15:36 | 52.70771 | 9.61015 | 38292 ft | 414 kts | 264° |
| 2026-04-26 15:36 | 52.69960 | 9.51680 | 38309 ft | 414 kts | 264° |
| 2026-04-26 15:37 | 52.69135 | 9.42272 | 38295 ft | 414 kts | 264° |
| 2026-04-26 15:37 | 52.68302 | 9.32863 | 38302 ft | 414 kts | 264° |
| 2026-04-26 15:38 | 52.67468 | 9.23526 | 38301 ft | 414 kts | 264° |
| 2026-04-26 15:38 | 52.66620 | 9.14128 | 38291 ft | 414 kts | 263° |
| 2026-04-26 15:39 | 52.65771 | 9.04797 | 38267 ft | 414 kts | 263° |
| 2026-04-26 15:39 | 52.65052 | 8.96959 | 38298 ft | 416 kts | 263° |
| 2026-04-26 15:40 | 52.64031 | 8.85937 | 38299 ft | 416 kts | 263° |
| 2026-04-26 15:40 | 52.63154 | 8.76559 | 38300 ft | 416 kts | 263° |
| 2026-04-26 15:41 | 52.62266 | 8.67141 | 38301 ft | 416 kts | 263° |
| 2026-04-26 15:41 | 52.61369 | 8.57712 | 38308 ft | 416 kts | 263° |
| 2026-04-26 15:42 | 52.60464 | 8.48284 | 38292 ft | 417 kts | 263° |
| 2026-04-26 15:42 | 52.59557 | 8.38919 | 38305 ft | 418 kts | 263° |
| 2026-04-26 15:43 | 52.58633 | 8.29452 | 38308 ft | 417 kts | 263° |
| 2026-04-26 15:44 | 52.57241 | 8.15350 | 38307 ft | 418 kts | 263° |
| 2026-04-26 15:44 | 52.55828 | 8.01212 | 38308 ft | 418 kts | 263° |
| 2026-04-26 15:45 | 52.54401 | 7.87108 | 38308 ft | 418 kts | 263° |
| 2026-04-26 15:46 | 52.52950 | 7.72952 | 38305 ft | 418 kts | 263° |
| 2026-04-26 15:46 | 52.52139 | 7.65104 | 38304 ft | 418 kts | 263° |
| 2026-04-26 15:47 | 52.50499 | 7.49414 | 38299 ft | 419 kts | 263° |
| 2026-04-26 15:48 | 52.49508 | 7.40029 | 38294 ft | 419 kts | 263° |
| 2026-04-26 15:48 | 52.48509 | 7.30647 | 38299 ft | 419 kts | 263° |
| 2026-04-26 15:49 | 52.47497 | 7.21216 | 38300 ft | 419 kts | 263° |
| 2026-04-26 15:49 | 52.46484 | 7.11843 | 38299 ft | 419 kts | 263° |
| 2026-04-26 15:50 | 52.45458 | 7.02428 | 38298 ft | 419 kts | 263° |
| 2026-04-26 15:50 | 52.44425 | 6.93022 | 38293 ft | 418 kts | 263° |
| 2026-04-26 15:51 | 52.43387 | 6.83642 | 38301 ft | 418 kts | 263° |
| 2026-04-26 15:51 | 52.42347 | 6.74317 | 38300 ft | 418 kts | 263° |
| 2026-04-26 15:52 | 52.41292 | 6.64923 | 38295 ft | 418 kts | 263° |
| 2026-04-26 15:52 | 52.40230 | 6.55542 | 38297 ft | 418 kts | 263° |
| 2026-04-26 15:53 | 52.39168 | 6.46231 | 38297 ft | 418 kts | 263° |
| 2026-04-26 15:53 | 52.38091 | 6.36855 | 38292 ft | 418 kts | 263° |
| 2026-04-26 15:54 | 52.37016 | 6.27561 | 38299 ft | 417 kts | 263° |
| 2026-04-26 15:54 | 52.35926 | 6.18215 | 38278 ft | 417 kts | 263° |
| 2026-04-26 15:55 | 52.34835 | 6.08920 | 38293 ft | 418 kts | 263° |
| 2026-04-26 15:55 | 52.33731 | 5.99584 | 38294 ft | 418 kts | 262° |
| 2026-04-26 15:56 | 52.32620 | 5.90254 | 38288 ft | 417 kts | 262° |
| 2026-04-26 15:56 | 52.31502 | 5.80939 | 38297 ft | 417 kts | 262° |
| 2026-04-26 15:57 | 52.30385 | 5.71692 | 38295 ft | 417 kts | 262° |
| 2026-04-26 15:57 | 52.29253 | 5.62386 | 38314 ft | 417 kts | 262° |
| 2026-04-26 15:58 | 52.28115 | 5.53093 | 38314 ft | 417 kts | 262° |
| 2026-04-26 15:58 | 52.26976 | 5.43860 | 38307 ft | 417 kts | 262° |
| 2026-04-26 15:59 | 52.25823 | 5.34575 | 38309 ft | 416 kts | 262° |
| 2026-04-26 15:59 | 52.24670 | 5.25347 | 38310 ft | 416 kts | 262° |
| 2026-04-26 16:00 | 52.23505 | 5.16094 | 38310 ft | 416 kts | 262° |
| 2026-04-26 16:00 | 52.22338 | 5.06887 | 38315 ft | 416 kts | 262° |
| 2026-04-26 16:01 | 52.21157 | 4.97626 | 38318 ft | 416 kts | 261° |
| 2026-04-26 16:01 | 52.19970 | 4.88386 | 38304 ft | 416 kts | 261° |
| 2026-04-26 16:02 | 52.18784 | 4.79206 | 38317 ft | 416 kts | 261° |
| 2026-04-26 16:02 | 52.17582 | 4.69974 | 38319 ft | 417 kts | 261° |
| 2026-04-26 16:03 | 52.16371 | 4.60724 | 38302 ft | 416 kts | 261° |
| 2026-04-26 16:03 | 52.15161 | 4.51545 | 38307 ft | 417 kts | 261° |
| 2026-04-26 16:04 | 52.13937 | 4.42319 | 38306 ft | 417 kts | 261° |
| 2026-04-26 16:04 | 52.12704 | 4.33081 | 38307 ft | 417 kts | 261° |
| 2026-04-26 16:05 | 52.11471 | 4.23911 | 38310 ft | 417 kts | 261° |
| 2026-04-26 16:05 | 52.10225 | 4.14696 | 38310 ft | 416 kts | 261° |
| 2026-04-26 16:06 | 52.08972 | 4.05487 | 38314 ft | 416 kts | 261° |
| 2026-04-26 16:06 | 52.07717 | 3.96322 | 38314 ft | 417 kts | 260° |
| 2026-04-26 16:07 | 52.06463 | 3.87201 | 37999 ft | 407 kts | 260° |
| 2026-04-26 16:07 | 52.05848 | 3.82752 | 37702 ft | 398 kts | 260° |
| 2026-04-26 16:07 | 52.05245 | 3.78396 | 37306 ft | 392 kts | 260° |
| 2026-04-26 16:07 | 52.04649 | 3.74098 | 36835 ft | 388 kts | 260° |
| 2026-04-26 16:08 | 52.04062 | 3.69885 | 36349 ft | 386 kts | 260° |
| 2026-04-26 16:08 | 52.03662 | 3.67018 | 36023 ft | 384 kts | 260° |
| 2026-04-26 16:08 | 52.03074 | 3.62809 | 35550 ft | 381 kts | 261° |
| 2026-04-26 16:08 | 52.02297 | 3.57277 | 34942 ft | 377 kts | 261° |
| 2026-04-26 16:09 | 52.01715 | 3.53138 | 34490 ft | 375 kts | 261° |
| 2026-04-26 16:09 | 52.01134 | 3.49023 | 33991 ft | 372 kts | 261° |
| 2026-04-26 16:09 | 52.00557 | 3.44942 | 33492 ft | 370 kts | 261° |
| 2026-04-26 16:09 | 52.00174 | 3.42241 | 33170 ft | 367 kts | 260° |
| 2026-04-26 16:10 | 51.99602 | 3.38220 | 32746 ft | 363 kts | 260° |
| 2026-04-26 16:10 | 51.99036 | 3.34246 | 32340 ft | 359 kts | 260° |
| 2026-04-26 16:10 | 51.98475 | 3.30317 | 31943 ft | 355 kts | 260° |
| 2026-04-26 16:10 | 51.97919 | 3.26430 | 31529 ft | 352 kts | 260° |
| 2026-04-26 16:11 | 51.97365 | 3.22569 | 31126 ft | 349 kts | 260° |
| 2026-04-26 16:11 | 51.96812 | 3.18728 | 30728 ft | 347 kts | 260° |
| 2026-04-26 16:11 | 51.96471 | 3.14902 | 30286 ft | 342 kts | 269° |
| 2026-04-26 16:11 | 51.96261 | 3.11066 | 29816 ft | 340 kts | 266° |
| 2026-04-26 16:12 | 51.96023 | 3.07326 | 29436 ft | 336 kts | 266° |
| 2026-04-26 16:12 | 51.95776 | 3.03577 | 29072 ft | 332 kts | 266° |
| 2026-04-26 16:12 | 51.95277 | 2.96206 | 28356 ft | 325 kts | 266° |
| 2026-04-26 16:13 | 51.95027 | 2.92561 | 27998 ft | 328 kts | 265° |
| 2026-04-26 16:13 | 51.94772 | 2.88856 | 27640 ft | 332 kts | 265° |
| 2026-04-26 16:13 | 51.94512 | 2.85101 | 27284 ft | 336 kts | 265° |
| 2026-04-26 16:13 | 51.94249 | 2.81334 | 26926 ft | 336 kts | 265° |
| 2026-04-26 16:14 | 51.93989 | 2.77614 | 26575 ft | 335 kts | 265° |
| 2026-04-26 16:14 | 51.93725 | 2.73863 | 26220 ft | 334 kts | 265° |
| 2026-04-26 16:14 | 51.93201 | 2.66400 | 25508 ft | 332 kts | 265° |
| 2026-04-26 16:15 | 51.92948 | 2.62675 | 25098 ft | 332 kts | 265° |
| 2026-04-26 16:15 | 51.92693 | 2.58964 | 24777 ft | 329 kts | 265° |
| 2026-04-26 16:15 | 51.92440 | 2.55290 | 24437 ft | 327 kts | 265° |
| 2026-04-26 16:16 | 51.91938 | 2.48063 | 23741 ft | 323 kts | 265° |
| 2026-04-26 16:16 | 51.91685 | 2.44444 | 23354 ft | 321 kts | 264° |
| 2026-04-26 16:16 | 51.91434 | 2.40875 | 23000 ft | 317 kts | 264° |
| 2026-04-26 16:16 | 51.91185 | 2.37345 | 22678 ft | 314 kts | 264° |
| 2026-04-26 16:17 | 51.90938 | 2.33840 | 22369 ft | 311 kts | 264° |
| 2026-04-26 16:17 | 51.90950 | 2.30329 | 22035 ft | 314 kts | 277° |
| 2026-04-26 16:17 | 51.91207 | 2.26829 | 21766 ft | 318 kts | 276° |
| 2026-04-26 16:17 | 51.91452 | 2.23262 | 21505 ft | 318 kts | 276° |
| 2026-04-26 16:18 | 51.91697 | 2.19699 | 21219 ft | 317 kts | 276° |
| 2026-04-26 16:18 | 51.92181 | 2.12647 | 20656 ft | 315 kts | 276° |
| 2026-04-26 16:19 | 51.92659 | 2.05613 | 20098 ft | 312 kts | 276° |
| 2026-04-26 16:19 | 51.92895 | 2.02126 | 19820 ft | 311 kts | 276° |
| 2026-04-26 16:19 | 51.93362 | 1.95167 | 19267 ft | 309 kts | 276° |
| 2026-04-26 16:20 | 51.93593 | 1.91704 | 18995 ft | 308 kts | 276° |
| 2026-04-26 16:20 | 51.94047 | 1.84852 | 18424 ft | 306 kts | 276° |
| 2026-04-26 16:20 | 51.94271 | 1.81445 | 18129 ft | 303 kts | 276° |
| 2026-04-26 16:21 | 51.94494 | 1.78053 | 17849 ft | 303 kts | 276° |
| 2026-04-26 16:21 | 51.94715 | 1.74653 | 17575 ft | 302 kts | 276° |
| 2026-04-26 16:21 | 51.94935 | 1.71269 | 17307 ft | 301 kts | 276° |
| 2026-04-26 16:21 | 51.95153 | 1.67895 | 17034 ft | 300 kts | 276° |
| 2026-04-26 16:22 | 51.95369 | 1.64537 | 16764 ft | 298 kts | 276° |
| 2026-04-26 16:22 | 51.95583 | 1.61203 | 16506 ft | 297 kts | 275° |
| 2026-04-26 16:22 | 51.95793 | 1.57915 | 16244 ft | 296 kts | 275° |
| 2026-04-26 16:22 | 51.96003 | 1.54599 | 15981 ft | 294 kts | 275° |
| 2026-04-26 16:23 | 51.96212 | 1.51290 | 15720 ft | 293 kts | 275° |
| 2026-04-26 16:23 | 51.96417 | 1.48038 | 15463 ft | 292 kts | 275° |
| 2026-04-26 16:23 | 51.96622 | 1.44760 | 15200 ft | 291 kts | 275° |
| 2026-04-26 16:23 | 51.96826 | 1.41493 | 14943 ft | 290 kts | 275° |
| 2026-04-26 16:24 | 51.97028 | 1.38235 | 14687 ft | 289 kts | 275° |
| 2026-04-26 16:24 | 51.97228 | 1.34990 | 14434 ft | 288 kts | 275° |
| 2026-04-26 16:24 | 51.97425 | 1.31798 | 14176 ft | 288 kts | 275° |
| 2026-04-26 16:24 | 51.97623 | 1.28571 | 13894 ft | 287 kts | 275° |
| 2026-04-26 16:25 | 51.97819 | 1.25358 | 13619 ft | 286 kts | 275° |
| 2026-04-26 16:25 | 51.98014 | 1.22147 | 13357 ft | 285 kts | 275° |
| 2026-04-26 16:25 | 51.98206 | 1.18961 | 13095 ft | 283 kts | 275° |
| 2026-04-26 16:25 | 51.98396 | 1.15791 | 12842 ft | 282 kts | 275° |
| 2026-04-26 16:26 | 51.98585 | 1.12633 | 12605 ft | 281 kts | 275° |
| 2026-04-26 16:26 | 51.98710 | 1.10544 | 12427 ft | 280 kts | 275° |
| 2026-04-26 16:26 | 51.98960 | 1.06335 | 12099 ft | 279 kts | 275° |
| 2026-04-26 16:26 | 51.99144 | 1.03207 | 11856 ft | 278 kts | 275° |
| 2026-04-26 16:27 | 51.99328 | 1.00083 | 11594 ft | 277 kts | 275° |
| 2026-04-26 16:27 | 51.99510 | 0.96979 | 11352 ft | 275 kts | 275° |
| 2026-04-26 16:27 | 51.99688 | 0.93908 | 11076 ft | 272 kts | 275° |
| 2026-04-26 16:27 | 51.99865 | 0.90873 | 10837 ft | 268 kts | 275° |
| 2026-04-26 16:28 | 52.00035 | 0.87911 | 10572 ft | 265 kts | 275° |
| 2026-04-26 16:28 | 52.00206 | 0.84940 | 10316 ft | 262 kts | 275° |
| 2026-04-26 16:28 | 52.00374 | 0.82006 | 10042 ft | 259 kts | 275° |
| 2026-04-26 16:28 | 52.00540 | 0.79089 | 9734 ft | 258 kts | 275° |
| 2026-04-26 16:29 | 52.00702 | 0.76232 | 9441 ft | 256 kts | 275° |
| 2026-04-26 16:29 | 52.00867 | 0.73317 | 9148 ft | 262 kts | 275° |
| 2026-04-26 16:29 | 52.01034 | 0.70355 | 8848 ft | 264 kts | 275° |
| 2026-04-26 16:29 | 52.01201 | 0.67382 | 8613 ft | 263 kts | 275° |
| 2026-04-26 16:30 | 52.01363 | 0.64491 | 8477 ft | 255 kts | 275° |
| 2026-04-26 16:30 | 52.01521 | 0.61666 | 8379 ft | 247 kts | 275° |
| 2026-04-26 16:30 | 52.01591 | 0.58919 | 8236 ft | 244 kts | 266° |
| 2026-04-26 16:30 | 52.01435 | 0.56140 | 7846 ft | 249 kts | 264° |
| 2026-04-26 16:31 | 52.01273 | 0.53304 | 7386 ft | 256 kts | 265° |
| 2026-04-26 16:31 | 52.01111 | 0.50409 | 6956 ft | 264 kts | 265° |
| 2026-04-26 16:31 | 52.00946 | 0.47398 | 6505 ft | 270 kts | 265° |
| 2026-04-26 16:31 | 52.00810 | 0.44354 | 6220 ft | 267 kts | 266° |
| 2026-04-26 16:32 | 52.00688 | 0.41389 | 6094 ft | 259 kts | 266° |
| 2026-04-26 16:32 | 52.00608 | 0.39442 | 6038 ft | 260 kts | 266° |
| 2026-04-26 16:32 | 52.00445 | 0.35522 | 5991 ft | 261 kts | 266° |
| 2026-04-26 16:32 | 52.00324 | 0.32623 | 5992 ft | 261 kts | 266° |
| 2026-04-26 16:33 | 52.00196 | 0.29681 | 5990 ft | 261 kts | 264° |
| 2026-04-26 16:33 | 51.99625 | 0.26938 | 5963 ft | 258 kts | 234° |
| 2026-04-26 16:33 | 51.98386 | 0.24829 | 6008 ft | 260 kts | 224° |
| 2026-04-26 16:33 | 51.97092 | 0.22793 | 5998 ft | 260 kts | 224° |
| 2026-04-26 16:34 | 51.95762 | 0.20773 | 5994 ft | 260 kts | 223° |
| 2026-04-26 16:34 | 51.94431 | 0.18765 | 5996 ft | 260 kts | 223° |
| 2026-04-26 16:34 | 51.93124 | 0.16794 | 6004 ft | 260 kts | 223° |
| 2026-04-26 16:34 | 51.91795 | 0.14789 | 6006 ft | 260 kts | 223° |
| 2026-04-26 16:35 | 51.90466 | 0.12787 | 5988 ft | 260 kts | 223° |
| 2026-04-26 16:35 | 51.89135 | 0.10781 | 5566 ft | 263 kts | 223° |
| 2026-04-26 16:35 | 51.87798 | 0.08770 | 4965 ft | 266 kts | 223° |
| 2026-04-26 16:35 | 51.86438 | 0.06723 | 4351 ft | 267 kts | 223° |
| 2026-04-26 16:36 | 51.85089 | 0.04669 | 3843 ft | 264 kts | 223° |
| 2026-04-26 16:36 | 51.83766 | 0.02638 | 3450 ft | 257 kts | 223° |
| 2026-04-26 16:36 | 51.82496 | 0.00689 | 3067 ft | 251 kts | 223° |
| 2026-04-26 16:36 | 51.81251 | -0.01216 | 2815 ft | 239 kts | 222° |
| 2026-04-26 16:37 | 51.79918 | -0.02618 | 2641 ft | 222 kts | 193° |
| 2026-04-26 16:37 | 51.78456 | -0.02581 | 2515 ft | 207 kts | 162° |
| 2026-04-26 16:37 | 51.77051 | -0.01965 | 2519 ft | 211 kts | 165° |
| 2026-04-26 16:37 | 51.75770 | -0.00924 | 2442 ft | 204 kts | 131° |
| 2026-04-26 16:38 | 51.75214 | 0.01042 | 2470 ft | 189 kts | 95° |
| 2026-04-26 16:38 | 51.75441 | 0.03091 | 2500 ft | 188 kts | 66° |
| 2026-04-26 16:38 | 51.76146 | 0.04880 | 2539 ft | 191 kts | 50° |
| 2026-04-26 16:38 | 51.77063 | 0.06397 | 2524 ft | 191 kts | 43° |
| 2026-04-26 16:39 | 51.78046 | 0.07849 | 2507 ft | 191 kts | 44° |
| 2026-04-26 16:39 | 51.79027 | 0.09307 | 2499 ft | 191 kts | 44° |
| 2026-04-26 16:39 | 51.79970 | 0.10713 | 2429 ft | 180 kts | 43° |
| 2026-04-26 16:39 | 51.80873 | 0.12063 | 2237 ft | 169 kts | 43° |
| 2026-04-26 16:40 | 51.81697 | 0.13288 | 2019 ft | 155 kts | 47° |
| 2026-04-26 16:40 | 51.82453 | 0.14428 | 1860 ft | 144 kts | 46° |
| 2026-04-26 16:40 | 51.83175 | 0.15509 | 1630 ft | 142 kts | 44° |
| 2026-04-26 16:40 | 51.83902 | 0.16593 | 1432 ft | 142 kts | 47° |
| 2026-04-26 16:41 | 51.84625 | 0.17677 | 1270 ft | 141 kts | 46° |
| 2026-04-26 16:41 | 51.85353 | 0.18755 | 1004 ft | 145 kts | 46° |
| 2026-04-26 16:41 | 51.86102 | 0.19850 | 811 ft | 145 kts | 47° |
| 2026-04-26 16:41 | 51.86832 | 0.20959 | 625 ft | 142 kts | 47° |
| 2026-04-26 16:42 | 51.87554 | 0.22055 | 413 ft | 141 kts | 46° |
| 2026-04-26 16:42 | 51.88242 | 0.23091 | 339 ft | 120 kts | 42° |
| 2026-04-26 16:42 | 51.88680 | 0.23749 | 347 ft | 55 kts | 43° |
| 2026-04-26 16:42 | 51.88855 | 0.24110 | 351 ft | 27 kts | 68° |
| 2026-04-26 16:43 | 51.88891 | 0.24288 | 355 ft | 12 kts | 72° |
| 2026-04-26 16:43 | 51.88915 | 0.24410 | 348 ft | 8 kts | 75° |